sensor_id;sensor_type;location;lat;lon;timestamp;P1;durP1;ratioP1;P2;durP2;ratioP2
3543;SDS011;1786;52.870;9.578;2023-08-20T00:01:17;17.83;;;11.93;;
3543;SDS011;1786;52.870;9.578;2023-08-20T00:03:49;19.63;;;13.03;;
3543;SDS011;1786;52.870;9.578;2023-08-20T00:06:17;17.23;;;13.27;;
3543;SDS011;1786;52.870;9.578;2023-08-20T00:08:43;15.63;;;11.90;;
3543;SDS011;1786;52.870;9.578;2023-08-20T00:11:11;18.47;;;12.83;;
3543;SDS011;1786;52.870;9.578;2023-08-20T00:13:38;18.20;;;12.50;;
3543;SDS011;1786;52.870;9.578;2023-08-20T00:16:06;15.33;;;12.10;;
3543;SDS011;1786;52.870;9.578;2023-08-20T00:18:33;24.73;;;13.70;;
3543;SDS011;1786;52.870;9.578;2023-08-20T00:21:04;25.10;;;12.97;;
3543;SDS011;1786;52.870;9.578;2023-08-20T00:23:31;73.63;;;14.77;;
3543;SDS011;1786;52.870;9.578;2023-08-20T00:25:57;50.83;;;14.30;;
3543;SDS011;1786;52.870;9.578;2023-08-20T00:28:24;33.43;;;13.40;;
3543;SDS011;1786;52.870;9.578;2023-08-20T00:30:52;25.83;;;12.73;;
3543;SDS011;1786;52.870;9.578;2023-08-20T00:33:18;19.53;;;13.07;;
3543;SDS011;1786;52.870;9.578;2023-08-20T00:35:45;19.47;;;14.80;;
3543;SDS011;1786;52.870;9.578;2023-08-20T00:38:13;22.40;;;16.37;;
3543;SDS011;1786;52.870;9.578;2023-08-20T00:40:40;21.87;;;18.10;;
3543;SDS011;1786;52.870;9.578;2023-08-20T00:43:06;24.17;;;19.10;;
3543;SDS011;1786;52.870;9.578;2023-08-20T00:45:33;28.23;;;19.80;;
3543;SDS011;1786;52.870;9.578;2023-08-20T00:48:00;26.80;;;19.70;;
3543;SDS011;1786;52.870;9.578;2023-08-20T00:50:27;29.00;;;20.50;;
3543;SDS011;1786;52.870;9.578;2023-08-20T00:52:55;25.90;;;21.20;;
3543;SDS011;1786;52.870;9.578;2023-08-20T00:55:21;25.00;;;18.53;;
3543;SDS011;1786;52.870;9.578;2023-08-20T00:57:49;22.90;;;19.13;;
3543;SDS011;1786;52.870;9.578;2023-08-20T01:00:16;23.83;;;18.60;;
3543;SDS011;1786;52.870;9.578;2023-08-20T01:02:44;29.40;;;19.30;;
3543;SDS011;1786;52.870;9.578;2023-08-20T01:05:13;33.60;;;20.17;;
3543;SDS011;1786;52.870;9.578;2023-08-20T01:07:46;23.03;;;18.90;;
3543;SDS011;1786;52.870;9.578;2023-08-20T01:10:29;27.80;;;20.17;;
3543;SDS011;1786;52.870;9.578;2023-08-20T01:13:06;24.40;;;19.83;;
3543;SDS011;1786;52.870;9.578;2023-08-20T01:15:34;22.13;;;17.23;;
3543;SDS011;1786;52.870;9.578;2023-08-20T01:18:01;30.50;;;18.57;;
3543;SDS011;1786;52.870;9.578;2023-08-20T01:20:48;115.27;;;21.30;;
3543;SDS011;1786;52.870;9.578;2023-08-20T01:24:16;133.80;;;23.60;;
3543;SDS011;1786;52.870;9.578;2023-08-20T01:29:22;35.57;;;19.83;;
3543;SDS011;1786;52.870;9.578;2023-08-20T01:31:50;25.47;;;20.30;;
3543;SDS011;1786;52.870;9.578;2023-08-20T01:34:18;41.73;;;21.33;;
3543;SDS011;1786;52.870;9.578;2023-08-20T01:36:44;23.80;;;19.30;;
3543;SDS011;1786;52.870;9.578;2023-08-20T01:39:11;46.43;;;19.37;;
3543;SDS011;1786;52.870;9.578;2023-08-20T01:41:38;21.97;;;17.23;;
3543;SDS011;1786;52.870;9.578;2023-08-20T01:44:05;22.87;;;18.53;;
3543;SDS011;1786;52.870;9.578;2023-08-20T01:46:31;21.57;;;19.00;;
3543;SDS011;1786;52.870;9.578;2023-08-20T01:48:59;24.43;;;20.20;;
3543;SDS011;1786;52.870;9.578;2023-08-20T01:51:26;20.70;;;17.90;;
3543;SDS011;1786;52.870;9.578;2023-08-20T01:53:53;129.53;;;20.93;;
3543;SDS011;1786;52.870;9.578;2023-08-20T01:56:22;46.53;;;18.33;;
3543;SDS011;1786;52.870;9.578;2023-08-20T01:58:49;38.23;;;18.30;;
3543;SDS011;1786;52.870;9.578;2023-08-20T02:01:16;558.37;;;30.17;;
3543;SDS011;1786;52.870;9.578;2023-08-20T02:03:44;153.10;;;18.40;;
3543;SDS011;1786;52.870;9.578;2023-08-20T02:06:10;33.10;;;19.97;;
3543;SDS011;1786;52.870;9.578;2023-08-20T02:08:37;162.13;;;20.50;;
3543;SDS011;1786;52.870;9.578;2023-08-20T02:11:04;315.37;;;22.83;;
3543;SDS011;1786;52.870;9.578;2023-08-20T02:13:31;254.17;;;23.23;;
3543;SDS011;1786;52.870;9.578;2023-08-20T02:15:59;121.33;;;22.03;;
3543;SDS011;1786;52.870;9.578;2023-08-20T02:18:27;102.00;;;19.33;;
3543;SDS011;1786;52.870;9.578;2023-08-20T02:20:55;80.13;;;17.20;;
3543;SDS011;1786;52.870;9.578;2023-08-20T02:23:22;104.73;;;17.57;;
3543;SDS011;1786;52.870;9.578;2023-08-20T02:25:50;65.70;;;19.50;;
3543;SDS011;1786;52.870;9.578;2023-08-20T02:28:17;59.33;;;17.40;;
3543;SDS011;1786;52.870;9.578;2023-08-20T02:30:45;82.43;;;16.37;;
3543;SDS011;1786;52.870;9.578;2023-08-20T02:33:13;34.83;;;16.77;;
3543;SDS011;1786;52.870;9.578;2023-08-20T02:35:40;91.23;;;17.20;;
3543;SDS011;1786;52.870;9.578;2023-08-20T02:38:07;102.30;;;19.03;;
3543;SDS011;1786;52.870;9.578;2023-08-20T02:40:39;75.53;;;17.37;;
3543;SDS011;1786;52.870;9.578;2023-08-20T02:43:08;59.53;;;17.97;;
3543;SDS011;1786;52.870;9.578;2023-08-20T02:45:41;41.90;;;16.03;;
3543;SDS011;1786;52.870;9.578;2023-08-20T02:48:09;58.53;;;15.73;;
3543;SDS011;1786;52.870;9.578;2023-08-20T02:50:38;122.40;;;18.93;;
3543;SDS011;1786;52.870;9.578;2023-08-20T02:53:05;67.53;;;17.43;;
3543;SDS011;1786;52.870;9.578;2023-08-20T02:55:33;117.87;;;19.47;;
3543;SDS011;1786;52.870;9.578;2023-08-20T02:58:00;166.70;;;19.53;;
3543;SDS011;1786;52.870;9.578;2023-08-20T03:00:29;129.47;;;20.10;;
3543;SDS011;1786;52.870;9.578;2023-08-20T03:02:56;112.33;;;20.70;;
3543;SDS011;1786;52.870;9.578;2023-08-20T03:05:25;195.63;;;21.17;;
3543;SDS011;1786;52.870;9.578;2023-08-20T03:07:52;213.40;;;23.27;;
3543;SDS011;1786;52.870;9.578;2023-08-20T03:10:19;117.37;;;19.17;;
3543;SDS011;1786;52.870;9.578;2023-08-20T03:12:46;179.80;;;20.57;;
3543;SDS011;1786;52.870;9.578;2023-08-20T03:15:13;134.10;;;21.07;;
3543;SDS011;1786;52.870;9.578;2023-08-20T03:17:41;143.77;;;21.87;;
3543;SDS011;1786;52.870;9.578;2023-08-20T03:20:08;143.93;;;19.47;;
3543;SDS011;1786;52.870;9.578;2023-08-20T03:22:37;217.37;;;22.37;;
3543;SDS011;1786;52.870;9.578;2023-08-20T03:25:04;129.87;;;19.80;;
3543;SDS011;1786;52.870;9.578;2023-08-20T03:27:32;218.60;;;22.50;;
3543;SDS011;1786;52.870;9.578;2023-08-20T03:29:59;156.67;;;19.90;;
3543;SDS011;1786;52.870;9.578;2023-08-20T03:32:26;103.30;;;19.63;;
3543;SDS011;1786;52.870;9.578;2023-08-20T03:34:54;174.60;;;19.83;;
3543;SDS011;1786;52.870;9.578;2023-08-20T03:37:22;264.80;;;19.70;;
3543;SDS011;1786;52.870;9.578;2023-08-20T03:39:49;183.67;;;18.37;;
3543;SDS011;1786;52.870;9.578;2023-08-20T03:42:16;58.27;;;17.27;;
3543;SDS011;1786;52.870;9.578;2023-08-20T03:44:42;139.53;;;17.60;;
3543;SDS011;1786;52.870;9.578;2023-08-20T03:47:09;176.50;;;16.70;;
3543;SDS011;1786;52.870;9.578;2023-08-20T03:49:36;216.23;;;18.57;;
3543;SDS011;1786;52.870;9.578;2023-08-20T03:52:03;233.03;;;16.73;;
3543;SDS011;1786;52.870;9.578;2023-08-20T03:54:32;245.80;;;18.43;;
3543;SDS011;1786;52.870;9.578;2023-08-20T03:56:59;218.50;;;15.80;;
3543;SDS011;1786;52.870;9.578;2023-08-20T03:59:28;138.17;;;14.20;;
3543;SDS011;1786;52.870;9.578;2023-08-20T04:01:56;65.93;;;12.03;;
3543;SDS011;1786;52.870;9.578;2023-08-20T04:04:25;218.20;;;15.87;;
3543;SDS011;1786;52.870;9.578;2023-08-20T04:06:53;257.20;;;21.30;;
3543;SDS011;1786;52.870;9.578;2023-08-20T04:09:19;145.40;;;13.17;;
3543;SDS011;1786;52.870;9.578;2023-08-20T04:11:46;233.67;;;15.90;;
3543;SDS011;1786;52.870;9.578;2023-08-20T04:14:12;91.87;;;11.73;;
3543;SDS011;1786;52.870;9.578;2023-08-20T04:16:40;215.73;;;14.17;;
3543;SDS011;1786;52.870;9.578;2023-08-20T04:19:07;188.77;;;14.37;;
3543;SDS011;1786;52.870;9.578;2023-08-20T04:21:34;127.33;;;12.00;;
3543;SDS011;1786;52.870;9.578;2023-08-20T04:24:00;245.20;;;14.67;;
3543;SDS011;1786;52.870;9.578;2023-08-20T04:26:28;151.57;;;13.37;;
3543;SDS011;1786;52.870;9.578;2023-08-20T04:28:55;145.60;;;13.50;;
3543;SDS011;1786;52.870;9.578;2023-08-20T04:31:22;106.17;;;12.23;;
3543;SDS011;1786;52.870;9.578;2023-08-20T04:33:55;183.07;;;14.03;;
3543;SDS011;1786;52.870;9.578;2023-08-20T04:36:32;169.47;;;13.37;;
3543;SDS011;1786;52.870;9.578;2023-08-20T04:38:59;165.33;;;13.40;;
3543;SDS011;1786;52.870;9.578;2023-08-20T04:41:28;77.43;;;12.17;;
3543;SDS011;1786;52.870;9.578;2023-08-20T04:43:55;111.40;;;12.27;;
3543;SDS011;1786;52.870;9.578;2023-08-20T04:46:22;105.40;;;11.57;;
3543;SDS011;1786;52.870;9.578;2023-08-20T04:48:49;94.63;;;11.37;;
3543;SDS011;1786;52.870;9.578;2023-08-20T04:51:18;94.03;;;11.70;;
3543;SDS011;1786;52.870;9.578;2023-08-20T04:53:45;105.73;;;12.90;;
3543;SDS011;1786;52.870;9.578;2023-08-20T04:56:14;93.17;;;12.60;;
3543;SDS011;1786;52.870;9.578;2023-08-20T04:58:40;27.30;;;10.17;;
3543;SDS011;1786;52.870;9.578;2023-08-20T05:01:08;41.27;;;9.20;;
3543;SDS011;1786;52.870;9.578;2023-08-20T05:03:36;35.00;;;9.27;;
3543;SDS011;1786;52.870;9.578;2023-08-20T05:06:03;30.03;;;9.80;;
3543;SDS011;1786;52.870;9.578;2023-08-20T05:08:30;18.97;;;8.60;;
3543;SDS011;1786;52.870;9.578;2023-08-20T05:10:57;28.90;;;9.53;;
3543;SDS011;1786;52.870;9.578;2023-08-20T05:13:24;14.23;;;9.80;;
3543;SDS011;1786;52.870;9.578;2023-08-20T05:15:51;55.37;;;11.57;;
3543;SDS011;1786;52.870;9.578;2023-08-20T05:18:18;38.57;;;10.40;;
3543;SDS011;1786;52.870;9.578;2023-08-20T05:20:46;47.10;;;11.20;;
3543;SDS011;1786;52.870;9.578;2023-08-20T05:23:12;61.67;;;9.90;;
3543;SDS011;1786;52.870;9.578;2023-08-20T05:25:40;51.37;;;9.73;;
3543;SDS011;1786;52.870;9.578;2023-08-20T05:28:07;70.10;;;11.20;;
3543;SDS011;1786;52.870;9.578;2023-08-20T05:30:34;57.47;;;11.70;;
3543;SDS011;1786;52.870;9.578;2023-08-20T05:33:01;52.13;;;12.00;;
3543;SDS011;1786;52.870;9.578;2023-08-20T05:35:33;41.63;;;12.33;;
3543;SDS011;1786;52.870;9.578;2023-08-20T05:38:00;71.70;;;15.87;;
3543;SDS011;1786;52.870;9.578;2023-08-20T05:40:27;79.37;;;17.07;;
3543;SDS011;1786;52.870;9.578;2023-08-20T05:42:54;38.17;;;15.37;;
3543;SDS011;1786;52.870;9.578;2023-08-20T05:45:21;75.03;;;15.27;;
3543;SDS011;1786;52.870;9.578;2023-08-20T05:47:49;43.57;;;13.53;;
3543;SDS011;1786;52.870;9.578;2023-08-20T05:50:17;63.33;;;14.47;;
3543;SDS011;1786;52.870;9.578;2023-08-20T05:52:44;58.27;;;15.00;;
3543;SDS011;1786;52.870;9.578;2023-08-20T05:55:11;52.00;;;15.80;;
3543;SDS011;1786;52.870;9.578;2023-08-20T05:57:38;29.93;;;15.87;;
3543;SDS011;1786;52.870;9.578;2023-08-20T06:00:05;32.53;;;14.47;;
3543;SDS011;1786;52.870;9.578;2023-08-20T06:02:38;25.07;;;15.67;;
3543;SDS011;1786;52.870;9.578;2023-08-20T06:05:05;18.70;;;15.50;;
3543;SDS011;1786;52.870;9.578;2023-08-20T06:07:32;23.80;;;14.20;;
3543;SDS011;1786;52.870;9.578;2023-08-20T06:09:59;17.03;;;13.00;;
3543;SDS011;1786;52.870;9.578;2023-08-20T06:12:25;16.77;;;13.30;;
3543;SDS011;1786;52.870;9.578;2023-08-20T06:14:53;13.83;;;12.50;;
3543;SDS011;1786;52.870;9.578;2023-08-20T06:17:19;14.63;;;12.20;;
3543;SDS011;1786;52.870;9.578;2023-08-20T06:19:47;18.20;;;13.63;;
3543;SDS011;1786;52.870;9.578;2023-08-20T06:22:14;14.20;;;11.90;;
3543;SDS011;1786;52.870;9.578;2023-08-20T06:24:40;14.80;;;12.07;;
3543;SDS011;1786;52.870;9.578;2023-08-20T06:27:07;11.27;;;9.80;;
3543;SDS011;1786;52.870;9.578;2023-08-20T06:29:34;11.80;;;9.87;;
3543;SDS011;1786;52.870;9.578;2023-08-20T06:32:01;19.77;;;9.63;;
3543;SDS011;1786;52.870;9.578;2023-08-20T06:34:28;10.27;;;8.63;;
3543;SDS011;1786;52.870;9.578;2023-08-20T06:36:55;8.77;;;7.97;;
3543;SDS011;1786;52.870;9.578;2023-08-20T06:39:22;9.00;;;8.10;;
3543;SDS011;1786;52.870;9.578;2023-08-20T06:41:49;11.27;;;8.32;;
3543;SDS011;1786;52.870;9.578;2023-08-20T06:44:19;8.45;;;7.50;;
3543;SDS011;1786;52.870;9.578;2023-08-20T06:46:46;9.13;;;7.97;;
3543;SDS011;1786;52.870;9.578;2023-08-20T06:49:13;7.40;;;6.70;;
3543;SDS011;1786;52.870;9.578;2023-08-20T06:51:40;7.82;;;7.03;;
3543;SDS011;1786;52.870;9.578;2023-08-20T06:54:07;8.10;;;6.63;;
3543;SDS011;1786;52.870;9.578;2023-08-20T06:56:34;5.60;;;5.20;;
3543;SDS011;1786;52.870;9.578;2023-08-20T06:59:00;5.70;;;5.15;;
3543;SDS011;1786;52.870;9.578;2023-08-20T07:01:29;6.50;;;5.80;;
3543;SDS011;1786;52.870;9.578;2023-08-20T07:03:56;8.02;;;5.63;;
3543;SDS011;1786;52.870;9.578;2023-08-20T07:06:23;4.75;;;4.40;;
3543;SDS011;1786;52.870;9.578;2023-08-20T07:08:50;8.77;;;4.85;;
3543;SDS011;1786;52.870;9.578;2023-08-20T07:11:17;6.28;;;4.97;;
3543;SDS011;1786;52.870;9.578;2023-08-20T07:13:43;5.45;;;4.53;;
3543;SDS011;1786;52.870;9.578;2023-08-20T07:16:10;5.45;;;4.25;;
3543;SDS011;1786;52.870;9.578;2023-08-20T07:18:37;4.18;;;3.33;;
3543;SDS011;1786;52.870;9.578;2023-08-20T07:21:04;3.88;;;3.42;;
3543;SDS011;1786;52.870;9.578;2023-08-20T07:23:31;7.68;;;3.60;;
3543;SDS011;1786;52.870;9.578;2023-08-20T07:26:04;3.33;;;3.13;;
3543;SDS011;1786;52.870;9.578;2023-08-20T07:28:36;8.27;;;3.88;;
3543;SDS011;1786;52.870;9.578;2023-08-20T07:31:22;6.53;;;3.78;;
3543;SDS011;1786;52.870;9.578;2023-08-20T07:33:49;3.17;;;2.88;;
3543;SDS011;1786;52.870;9.578;2023-08-20T07:36:17;8.00;;;3.65;;
3543;SDS011;1786;52.870;9.578;2023-08-20T07:38:45;3.42;;;3.17;;
3543;SDS011;1786;52.870;9.578;2023-08-20T07:41:12;3.75;;;3.38;;
3543;SDS011;1786;52.870;9.578;2023-08-20T07:43:40;4.50;;;3.15;;
3543;SDS011;1786;52.870;9.578;2023-08-20T07:46:07;4.95;;;2.88;;
3543;SDS011;1786;52.870;9.578;2023-08-20T07:48:35;2.90;;;2.35;;
3543;SDS011;1786;52.870;9.578;2023-08-20T07:51:02;5.57;;;3.40;;
3543;SDS011;1786;52.870;9.578;2023-08-20T07:53:30;3.05;;;2.45;;
3543;SDS011;1786;52.870;9.578;2023-08-20T07:55:57;2.70;;;2.50;;
3543;SDS011;1786;52.870;9.578;2023-08-20T07:58:24;5.43;;;2.20;;
3543;SDS011;1786;52.870;9.578;2023-08-20T08:00:50;4.13;;;2.90;;
3543;SDS011;1786;52.870;9.578;2023-08-20T08:03:18;3.90;;;2.35;;
3543;SDS011;1786;52.870;9.578;2023-08-20T08:05:48;3.45;;;2.00;;
3543;SDS011;1786;52.870;9.578;2023-08-20T08:08:16;2.45;;;2.08;;
3543;SDS011;1786;52.870;9.578;2023-08-20T08:10:44;3.33;;;2.35;;
3543;SDS011;1786;52.870;9.578;2023-08-20T08:13:13;5.50;;;2.03;;
3543;SDS011;1786;52.870;9.578;2023-08-20T08:15:45;5.22;;;2.47;;
3543;SDS011;1786;52.870;9.578;2023-08-20T08:18:12;2.80;;;1.83;;
3543;SDS011;1786;52.870;9.578;2023-08-20T08:20:39;2.40;;;2.17;;
3543;SDS011;1786;52.870;9.578;2023-08-20T08:23:06;7.30;;;2.50;;
3543;SDS011;1786;52.870;9.578;2023-08-20T08:25:33;4.20;;;1.92;;
3543;SDS011;1786;52.870;9.578;2023-08-20T08:27:59;3.00;;;1.83;;
3543;SDS011;1786;52.870;9.578;2023-08-20T08:30:27;3.03;;;2.22;;
3543;SDS011;1786;52.870;9.578;2023-08-20T08:32:55;5.70;;;2.15;;
3543;SDS011;1786;52.870;9.578;2023-08-20T08:35:22;3.55;;;1.77;;
3543;SDS011;1786;52.870;9.578;2023-08-20T08:37:49;2.47;;;1.40;;
3543;SDS011;1786;52.870;9.578;2023-08-20T08:40:17;3.65;;;2.08;;
3543;SDS011;1786;52.870;9.578;2023-08-20T08:42:46;6.22;;;2.10;;
3543;SDS011;1786;52.870;9.578;2023-08-20T08:45:16;7.47;;;2.20;;
3543;SDS011;1786;52.870;9.578;2023-08-20T08:47:45;7.75;;;1.77;;
3543;SDS011;1786;52.870;9.578;2023-08-20T08:50:13;3.60;;;2.00;;
3543;SDS011;1786;52.870;9.578;2023-08-20T08:52:40;7.60;;;2.10;;
3543;SDS011;1786;52.870;9.578;2023-08-20T08:55:08;5.80;;;1.90;;
3543;SDS011;1786;52.870;9.578;2023-08-20T08:57:36;5.82;;;2.30;;
3543;SDS011;1786;52.870;9.578;2023-08-20T09:00:03;2.20;;;2.00;;
3543;SDS011;1786;52.870;9.578;2023-08-20T09:02:32;3.55;;;1.80;;
3543;SDS011;1786;52.870;9.578;2023-08-20T09:04:59;5.10;;;2.05;;
3543;SDS011;1786;52.870;9.578;2023-08-20T09:07:26;2.25;;;1.70;;
3543;SDS011;1786;52.870;9.578;2023-08-20T09:09:56;4.85;;;2.33;;
3543;SDS011;1786;52.870;9.578;2023-08-20T09:12:25;5.10;;;2.28;;
3543;SDS011;1786;52.870;9.578;2023-08-20T09:14:53;7.03;;;2.47;;
3543;SDS011;1786;52.870;9.578;2023-08-20T09:17:25;5.07;;;2.03;;
3543;SDS011;1786;52.870;9.578;2023-08-20T09:19:54;3.70;;;2.10;;
3543;SDS011;1786;52.870;9.578;2023-08-20T09:22:23;6.10;;;2.40;;
3543;SDS011;1786;52.870;9.578;2023-08-20T09:24:53;7.18;;;2.38;;
3543;SDS011;1786;52.870;9.578;2023-08-20T09:27:22;3.47;;;2.10;;
3543;SDS011;1786;52.870;9.578;2023-08-20T09:29:53;5.40;;;2.30;;
3543;SDS011;1786;52.870;9.578;2023-08-20T09:32:22;5.32;;;2.55;;
3543;SDS011;1786;52.870;9.578;2023-08-20T09:34:51;4.53;;;2.25;;
3543;SDS011;1786;52.870;9.578;2023-08-20T09:37:20;3.70;;;2.08;;
3543;SDS011;1786;52.870;9.578;2023-08-20T09:39:48;3.90;;;1.95;;
3543;SDS011;1786;52.870;9.578;2023-08-20T09:42:15;2.42;;;1.90;;
3543;SDS011;1786;52.870;9.578;2023-08-20T09:44:43;3.78;;;2.50;;
3543;SDS011;1786;52.870;9.578;2023-08-20T09:47:15;3.78;;;1.90;;
3543;SDS011;1786;52.870;9.578;2023-08-20T09:49:44;8.63;;;1.98;;
3543;SDS011;1786;52.870;9.578;2023-08-20T09:55:08;5.85;;;2.10;;
3543;SDS011;1786;52.870;9.578;2023-08-20T09:57:36;4.50;;;2.10;;
3543;SDS011;1786;52.870;9.578;2023-08-20T10:00:05;7.18;;;2.45;;
3543;SDS011;1786;52.870;9.578;2023-08-20T10:02:39;8.32;;;3.30;;
3543;SDS011;1786;52.870;9.578;2023-08-20T10:05:06;4.35;;;2.10;;
3543;SDS011;1786;52.870;9.578;2023-08-20T10:07:34;5.22;;;2.17;;
3543;SDS011;1786;52.870;9.578;2023-08-20T10:10:03;4.45;;;2.42;;
3543;SDS011;1786;52.870;9.578;2023-08-20T10:12:31;2.80;;;2.10;;
3543;SDS011;1786;52.870;9.578;2023-08-20T10:14:59;3.15;;;2.00;;
3543;SDS011;1786;52.870;9.578;2023-08-20T10:17:30;5.07;;;2.10;;
3543;SDS011;1786;52.870;9.578;2023-08-20T10:20:03;3.85;;;2.65;;
3543;SDS011;1786;52.870;9.578;2023-08-20T10:22:32;4.57;;;2.38;;
3543;SDS011;1786;52.870;9.578;2023-08-20T10:25:10;2.88;;;2.47;;
3543;SDS011;1786;52.870;9.578;2023-08-20T10:27:39;4.70;;;2.40;;
3543;SDS011;1786;52.870;9.578;2023-08-20T10:30:09;6.25;;;2.15;;
3543;SDS011;1786;52.870;9.578;2023-08-20T10:35:28;3.33;;;2.20;;
3543;SDS011;1786;52.870;9.578;2023-08-20T10:40:59;2.78;;;2.28;;
3543;SDS011;1786;52.870;9.578;2023-08-20T10:43:27;3.38;;;2.08;;
3543;SDS011;1786;52.870;9.578;2023-08-20T10:48:39;6.07;;;1.80;;
3543;SDS011;1786;52.870;9.578;2023-08-20T10:53:41;3.03;;;1.98;;
3543;SDS011;1786;52.870;9.578;2023-08-20T10:56:19;3.70;;;1.83;;
3543;SDS011;1786;52.870;9.578;2023-08-20T10:58:46;5.18;;;2.42;;
3543;SDS011;1786;52.870;9.578;2023-08-20T11:01:21;5.70;;;2.13;;
3543;SDS011;1786;52.870;9.578;2023-08-20T11:03:49;3.17;;;2.20;;
3543;SDS011;1786;52.870;9.578;2023-08-20T11:06:17;4.97;;;2.10;;
3543;SDS011;1786;52.870;9.578;2023-08-20T11:08:45;3.80;;;2.17;;
3543;SDS011;1786;52.870;9.578;2023-08-20T11:11:12;5.05;;;2.30;;
3543;SDS011;1786;52.870;9.578;2023-08-20T11:13:39;7.25;;;2.15;;
3543;SDS011;1786;52.870;9.578;2023-08-20T11:16:07;2.72;;;2.15;;
3543;SDS011;1786;52.870;9.578;2023-08-20T11:18:34;2.92;;;1.90;;
3543;SDS011;1786;52.870;9.578;2023-08-20T11:21:01;3.00;;;2.60;;
3543;SDS011;1786;52.870;9.578;2023-08-20T11:23:29;7.47;;;2.10;;
3543;SDS011;1786;52.870;9.578;2023-08-20T11:25:57;4.53;;;1.52;;
3543;SDS011;1786;52.870;9.578;2023-08-20T11:28:25;3.10;;;2.17;;
3543;SDS011;1786;52.870;9.578;2023-08-20T11:30:53;2.40;;;1.67;;
3543;SDS011;1786;52.870;9.578;2023-08-20T11:33:22;2.42;;;1.90;;
3543;SDS011;1786;52.870;9.578;2023-08-20T11:35:50;3.88;;;2.00;;
3543;SDS011;1786;52.870;9.578;2023-08-20T11:38:19;3.58;;;2.28;;
3543;SDS011;1786;52.870;9.578;2023-08-20T11:40:47;2.47;;;2.10;;
3543;SDS011;1786;52.870;9.578;2023-08-20T11:43:13;2.10;;;1.90;;
3543;SDS011;1786;52.870;9.578;2023-08-20T11:45:44;3.45;;;2.20;;
3543;SDS011;1786;52.870;9.578;2023-08-20T11:48:15;4.53;;;2.88;;
3543;SDS011;1786;52.870;9.578;2023-08-20T11:50:43;6.97;;;2.03;;
3543;SDS011;1786;52.870;9.578;2023-08-20T11:53:10;6.57;;;2.47;;
3543;SDS011;1786;52.870;9.578;2023-08-20T11:55:38;2.30;;;2.13;;
3543;SDS011;1786;52.870;9.578;2023-08-20T11:58:08;3.25;;;2.58;;
3543;SDS011;1786;52.870;9.578;2023-08-20T12:00:36;2.92;;;2.25;;
3543;SDS011;1786;52.870;9.578;2023-08-20T12:03:03;7.35;;;2.25;;
3543;SDS011;1786;52.870;9.578;2023-08-20T12:05:31;3.65;;;2.00;;
3543;SDS011;1786;52.870;9.578;2023-08-20T12:08:01;2.60;;;2.40;;
3543;SDS011;1786;52.870;9.578;2023-08-20T12:10:31;5.95;;;2.67;;
3543;SDS011;1786;52.870;9.578;2023-08-20T12:12:58;2.28;;;2.17;;
3543;SDS011;1786;52.870;9.578;2023-08-20T12:15:25;3.65;;;2.17;;
3543;SDS011;1786;52.870;9.578;2023-08-20T12:17:59;3.85;;;2.63;;
3543;SDS011;1786;52.870;9.578;2023-08-20T12:20:27;1.98;;;1.88;;
3543;SDS011;1786;52.870;9.578;2023-08-20T12:22:56;2.55;;;2.35;;
3543;SDS011;1786;52.870;9.578;2023-08-20T12:25:25;2.90;;;2.40;;
3543;SDS011;1786;52.870;9.578;2023-08-20T12:27:52;2.35;;;2.15;;
3543;SDS011;1786;52.870;9.578;2023-08-20T12:30:19;4.30;;;2.33;;
3543;SDS011;1786;52.870;9.578;2023-08-20T12:32:46;2.83;;;2.13;;
3543;SDS011;1786;52.870;9.578;2023-08-20T12:35:13;2.22;;;2.00;;
3543;SDS011;1786;52.870;9.578;2023-08-20T12:37:40;2.15;;;2.03;;
3543;SDS011;1786;52.870;9.578;2023-08-20T12:40:07;6.45;;;2.70;;
3543;SDS011;1786;52.870;9.578;2023-08-20T12:42:37;2.53;;;1.95;;
3543;SDS011;1786;52.870;9.578;2023-08-20T12:45:07;5.30;;;2.30;;
3543;SDS011;1786;52.870;9.578;2023-08-20T12:47:35;2.42;;;1.83;;
3543;SDS011;1786;52.870;9.578;2023-08-20T12:50:02;2.08;;;1.90;;
3543;SDS011;1786;52.870;9.578;2023-08-20T12:52:31;2.95;;;2.08;;
3543;SDS011;1786;52.870;9.578;2023-08-20T12:54:58;4.20;;;2.05;;
3543;SDS011;1786;52.870;9.578;2023-08-20T12:57:25;3.22;;;2.17;;
3543;SDS011;1786;52.870;9.578;2023-08-20T12:59:52;2.10;;;2.00;;
3543;SDS011;1786;52.870;9.578;2023-08-20T13:02:19;6.60;;;2.83;;
3543;SDS011;1786;52.870;9.578;2023-08-20T13:04:47;4.00;;;2.58;;
3543;SDS011;1786;52.870;9.578;2023-08-20T13:07:14;2.38;;;2.20;;
3543;SDS011;1786;52.870;9.578;2023-08-20T13:09:41;2.13;;;1.98;;
3543;SDS011;1786;52.870;9.578;2023-08-20T13:12:09;1.80;;;1.70;;
3543;SDS011;1786;52.870;9.578;2023-08-20T13:14:39;2.13;;;1.80;;
3543;SDS011;1786;52.870;9.578;2023-08-20T13:17:07;4.45;;;2.60;;
3543;SDS011;1786;52.870;9.578;2023-08-20T13:19:34;2.10;;;1.90;;
3543;SDS011;1786;52.870;9.578;2023-08-20T13:22:01;2.60;;;2.03;;
3543;SDS011;1786;52.870;9.578;2023-08-20T13:24:28;4.32;;;2.50;;
3543;SDS011;1786;52.870;9.578;2023-08-20T13:26:54;6.90;;;1.88;;
3543;SDS011;1786;52.870;9.578;2023-08-20T13:29:21;1.88;;;1.77;;
3543;SDS011;1786;52.870;9.578;2023-08-20T13:31:48;3.05;;;1.92;;
3543;SDS011;1786;52.870;9.578;2023-08-20T13:34:14;2.20;;;1.63;;
3543;SDS011;1786;52.870;9.578;2023-08-20T13:36:41;1.73;;;1.63;;
3543;SDS011;1786;52.870;9.578;2023-08-20T13:39:08;1.73;;;1.63;;
3543;SDS011;1786;52.870;9.578;2023-08-20T13:41:35;5.70;;;1.92;;
3543;SDS011;1786;52.870;9.578;2023-08-20T13:44:01;2.38;;;2.15;;
3543;SDS011;1786;52.870;9.578;2023-08-20T13:46:29;6.00;;;1.77;;
3543;SDS011;1786;52.870;9.578;2023-08-20T13:48:55;3.45;;;1.75;;
3543;SDS011;1786;52.870;9.578;2023-08-20T13:51:22;2.25;;;1.50;;
3543;SDS011;1786;52.870;9.578;2023-08-20T13:53:49;2.35;;;2.08;;
3543;SDS011;1786;52.870;9.578;2023-08-20T13:56:15;3.40;;;2.00;;
3543;SDS011;1786;52.870;9.578;2023-08-20T13:58:42;5.93;;;2.17;;
3543;SDS011;1786;52.870;9.578;2023-08-20T14:01:09;2.88;;;1.90;;
3543;SDS011;1786;52.870;9.578;2023-08-20T14:03:36;2.83;;;2.00;;
3543;SDS011;1786;52.870;9.578;2023-08-20T14:06:02;2.30;;;2.15;;
3543;SDS011;1786;52.870;9.578;2023-08-20T14:08:29;2.15;;;1.95;;
3543;SDS011;1786;52.870;9.578;2023-08-20T14:10:56;3.55;;;2.00;;
3543;SDS011;1786;52.870;9.578;2023-08-20T14:13:22;4.25;;;1.88;;
3543;SDS011;1786;52.870;9.578;2023-08-20T14:15:49;3.75;;;2.30;;
3543;SDS011;1786;52.870;9.578;2023-08-20T14:18:16;5.38;;;2.10;;
3543;SDS011;1786;52.870;9.578;2023-08-20T14:20:43;2.05;;;1.95;;
3543;SDS011;1786;52.870;9.578;2023-08-20T14:23:10;2.83;;;2.40;;
3543;SDS011;1786;52.870;9.578;2023-08-20T14:25:36;5.28;;;2.10;;
3543;SDS011;1786;52.870;9.578;2023-08-20T14:28:03;4.25;;;2.05;;
3543;SDS011;1786;52.870;9.578;2023-08-20T14:30:30;7.40;;;2.28;;
3543;SDS011;1786;52.870;9.578;2023-08-20T14:32:57;5.47;;;2.17;;
3543;SDS011;1786;52.870;9.578;2023-08-20T14:35:25;2.25;;;1.75;;
3543;SDS011;1786;52.870;9.578;2023-08-20T14:37:52;3.10;;;2.38;;
3543;SDS011;1786;52.870;9.578;2023-08-20T14:40:20;2.95;;;2.22;;
3543;SDS011;1786;52.870;9.578;2023-08-20T14:42:47;2.75;;;1.98;;
3543;SDS011;1786;52.870;9.578;2023-08-20T14:45:14;2.13;;;1.92;;
3543;SDS011;1786;52.870;9.578;2023-08-20T14:47:40;2.40;;;2.20;;
3543;SDS011;1786;52.870;9.578;2023-08-20T14:50:08;2.17;;;1.90;;
3543;SDS011;1786;52.870;9.578;2023-08-20T14:52:35;4.35;;;2.25;;
3543;SDS011;1786;52.870;9.578;2023-08-20T14:55:02;2.70;;;2.50;;
3543;SDS011;1786;52.870;9.578;2023-08-20T14:57:30;1.95;;;1.80;;
3543;SDS011;1786;52.870;9.578;2023-08-20T15:00:16;2.05;;;1.70;;
3543;SDS011;1786;52.870;9.578;2023-08-20T15:02:50;2.42;;;1.98;;
3543;SDS011;1786;52.870;9.578;2023-08-20T15:05:17;2.20;;;2.00;;
3543;SDS011;1786;52.870;9.578;2023-08-20T15:07:44;3.13;;;2.47;;
3543;SDS011;1786;52.870;9.578;2023-08-20T15:10:11;3.60;;;2.28;;
3543;SDS011;1786;52.870;9.578;2023-08-20T15:12:38;3.45;;;1.90;;
3543;SDS011;1786;52.870;9.578;2023-08-20T15:15:05;5.22;;;2.20;;
3543;SDS011;1786;52.870;9.578;2023-08-20T15:17:32;4.28;;;2.50;;
3543;SDS011;1786;52.870;9.578;2023-08-20T15:20:00;2.25;;;2.03;;
3543;SDS011;1786;52.870;9.578;2023-08-20T15:22:26;3.25;;;2.35;;
3543;SDS011;1786;52.870;9.578;2023-08-20T15:24:54;3.40;;;1.67;;